Terminal Aerodrome Forecast
Issued by NWS

Home | Current Version | Previous Version | Text Only | Print | Product List | Glossary On
Versions: 1 2 3 4 5 6 7 8 9 10 11 12 13 14 15 16 17 18 19 20 21
000
FTUS41 KBGM 192326
TAFITH
TAF
KITH 192326Z 2000/2024 16007KT P6SM SCT200
     FM200200 20008KT P6SM SCT150 WS020/25045KT
     FM201500 25010KT P6SM FEW060 SCT120
     FM202100 28009KT P6SM SCT020 BKN050
     FM202300 29008KT P6SM SCT008 BKN020 OVC030=

USA.gov is the U.S. government's official web portal to all federal, state and local government web resources and services.